Pioneer Knutsen — LMIK — position and weather

sailwx.info

Track history (hours):
 
Tides and Currents Weather Stations Pressure Air Temp Water Temp Dewpoint Dewpoint Depression Visibility Wind Speed Wind Dir Waves Ship Positions

Pioneer Knutsen

Last reported at 2017-Jan-18 16:09 UTC. Time now 2017-Jan-18 18:18 UTC.
Position N 63°47' E 009°33'.

Length 70 m; draft 3.6 m.

Type: Ship. MMSI: 259393000.

Date/timePositionNaut miles runAvg speedWind from/ knotsBaromVisibWave heightAir tempDewpointWater temp
2017-Jan-18 16:09N 63°47' E 009°33'711.7
2017-Jan-18 15:33N 63°40' E 009°29'1312.1
2017-Jan-18 14:31N 63°31' E 009°10'2713.8
2017-Jan-18 12:32N 63°18' E 008°15'1413.9
2017-Jan-18 11:34N 63°12' E 007°49'1313.1
2017-Jan-18 10:34N 63°04' E 007°25'2612.5
2017-Jan-18 08:31N 62°50' E 006°39'12 0.3
2017-Jan-16 17:05N 62°40' E 006°25'710.9
2017-Jan-16 16:30N 62°45' E 006°33'1011.0
2017-Jan-16 15:33N 62°54' E 006°45'10 9.9
2017-Jan-16 14:32N 63°00' E 007°02'1111.2
2017-Jan-16 13:33N 63°04' E 007°24'1211.5
2017-Jan-16 12:33N 63°11' E 007°45'1111.2
2017-Jan-16 11:33N 63°16' E 008°07'2711.3
2017-Jan-16 09:10N 63°29' E 008°60'711.4
2017-Jan-16 08:33N 63°32' E 009°14'1111.0
2017-Jan-16 07:33N 63°41' E 009°29'7110.9
2017-Jan-16 01:03N 64°42' E 010°51'612.3
2017-Jan-16 00:33N 64°46' E 011°02'1111.4
2017-Jan-15 23:33N 64°54' E 011°21'1212.1
2017-Jan-15 22:33N 65°02' E 011°43'1312.5
2017-Jan-15 21:30N 65°14' E 011°55'8 0.5
2017-Jan-15 05:14N 65°22' E 012°04'710.8
2017-Jan-15 04:33N 65°15' E 011°56'1010.3
2017-Jan-15 03:33N 65°05' E 011°47'1111.4
2017-Jan-15 02:34N 64°57' E 011°29'1111.3
2017-Jan-15 01:34N 64°49' E 011°10'7610.4
2017-Jan-14 18:19N 63°46' E 009°33'810.4
2017-Jan-14 17:33N 63°39' E 009°29'1110.6
2017-Jan-14 16:32N 63°31' E 009°11'2511.6
2017-Jan-14 14:21N 63°20' E 008°20'1012.3
2017-Jan-14 13:33N 63°15' E 008°02'1212.2
2017-Jan-14 12:33N 63°08' E 007°39'1211.7
2017-Jan-14 11:33N 63°03' E 007°17'2211.0
2017-Jan-14 09:33N 62°49' E 006°38'10 0.2
2017-Jan-12 16:33N 62°41' E 006°26'1010.4
2017-Jan-12 15:33N 62°49' E 006°38'12 9.3
2017-Jan-12 14:17N 62°59' E 006°53'6 8.3
2017-Jan-12 13:33N 63°01' E 007°06'9 9.2
2017-Jan-12 12:33N 63°04' E 007°25'8 7.5
2017-Jan-12 11:33N 63°05' E 007°41'10 9.7
2017-Jan-12 10:33N 62°59' E 007°57'6 0.7
2017-Jan-12 02:18N 62°55' E 008°08'810.3
2017-Jan-12 01:33N 62°58' E 007°52'8 7.6
2017-Jan-12 00:33N 63°05' E 007°55'8 8.1
2017-Jan-11 23:33N 63°13' E 007°55'3310.7
2017-Jan-11 20:29N 63°29' E 008°60'1010.8
2017-Jan-11 19:33N 63°34' E 009°20'1110.9
2017-Jan-11 18:33N 63°43' E 009°32'4 0.9
2017-Jan-11 14:21N 63°47' E 009°33'911.8
2017-Jan-11 13:34N 63°38' E 009°28'1211.3
2017-Jan-11 12:31N 63°30' E 009°07'2612.0
2017-Jan-11 10:21N 63°18' E 008°16'1012.4
2017-Jan-11 09:33N 63°14' E 007°57'1212.4
2017-Jan-11 08:33N 63°07' E 007°34'1212.2
2017-Jan-11 07:33N 63°02' E 007°10'1412.2
2017-Jan-11 06:22N 62°53' E 006°44'  
Track history (hours):
 
Tides and Currents Weather Stations Pressure Air Temp Water Temp Dewpoint Dewpoint Depression Visibility Wind Speed Wind Dir Waves Ship Positions

Pioneer Knutsen

Last reported at 2017-Jan-18 16:09 UTC. Time now 2017-Jan-18 18:18 UTC.
Position N 63°47' E 009°33'.

Length 70 m; draft 3.6 m.

Type: Ship. MMSI: 259393000.

Date/timePositionNaut miles runAvg speedWind from/ knotsBaromVisibWave heightAir tempDewpointWater temp
2017-Jan-18 16:09N 63°47' E 009°33'711.7
2017-Jan-18 15:33N 63°40' E 009°29'1312.1
2017-Jan-18 14:31N 63°31' E 009°10'2713.8
2017-Jan-18 12:32N 63°18' E 008°15'1413.9
2017-Jan-18 11:34N 63°12' E 007°49'1313.1
2017-Jan-18 10:34N 63°04' E 007°25'2612.5
2017-Jan-18 08:31N 62°50' E 006°39'12 0.3
2017-Jan-16 17:05N 62°40' E 006°25'710.9
2017-Jan-16 16:30N 62°45' E 006°33'1011.0
2017-Jan-16 15:33N 62°54' E 006°45'10 9.9
2017-Jan-16 14:32N 63°00' E 007°02'1111.2
2017-Jan-16 13:33N 63°04' E 007°24'1211.5
2017-Jan-16 12:33N 63°11' E 007°45'1111.2
2017-Jan-16 11:33N 63°16' E 008°07'2711.3
2017-Jan-16 09:10N 63°29' E 008°60'711.4
2017-Jan-16 08:33N 63°32' E 009°14'1111.0
2017-Jan-16 07:33N 63°41' E 009°29'7110.9
2017-Jan-16 01:03N 64°42' E 010°51'612.3
2017-Jan-16 00:33N 64°46' E 011°02'1111.4
2017-Jan-15 23:33N 64°54' E 011°21'1212.1
2017-Jan-15 22:33N 65°02' E 011°43'1312.5
2017-Jan-15 21:30N 65°14' E 011°55'8 0.5
2017-Jan-15 05:14N 65°22' E 012°04'710.8
2017-Jan-15 04:33N 65°15' E 011°56'1010.3
2017-Jan-15 03:33N 65°05' E 011°47'1111.4
2017-Jan-15 02:34N 64°57' E 011°29'1111.3
2017-Jan-15 01:34N 64°49' E 011°10'7610.4
2017-Jan-14 18:19N 63°46' E 009°33'810.4
2017-Jan-14 17:33N 63°39' E 009°29'1110.6
2017-Jan-14 16:32N 63°31' E 009°11'2511.6
2017-Jan-14 14:21N 63°20' E 008°20'1012.3
2017-Jan-14 13:33N 63°15' E 008°02'1212.2
2017-Jan-14 12:33N 63°08' E 007°39'1211.7
2017-Jan-14 11:33N 63°03' E 007°17'2211.0
2017-Jan-14 09:33N 62°49' E 006°38'10 0.2
2017-Jan-12 16:33N 62°41' E 006°26'1010.4
2017-Jan-12 15:33N 62°49' E 006°38'12 9.3
2017-Jan-12 14:17N 62°59' E 006°53'6 8.3
2017-Jan-12 13:33N 63°01' E 007°06'9 9.2
2017-Jan-12 12:33N 63°04' E 007°25'8 7.5
2017-Jan-12 11:33N 63°05' E 007°41'10 9.7
2017-Jan-12 10:33N 62°59' E 007°57'6 0.7
2017-Jan-12 02:18N 62°55' E 008°08'810.3
2017-Jan-12 01:33N 62°58' E 007°52'8 7.6
2017-Jan-12 00:33N 63°05' E 007°55'8 8.1
2017-Jan-11 23:33N 63°13' E 007°55'3310.7
2017-Jan-11 20:29N 63°29' E 008°60'1010.8
2017-Jan-11 19:33N 63°34' E 009°20'1110.9
2017-Jan-11 18:33N 63°43' E 009°32'4 0.9
2017-Jan-11 14:21N 63°47' E 009°33'911.8
2017-Jan-11 13:34N 63°38' E 009°28'1211.3
2017-Jan-11 12:31N 63°30' E 009°07'2612.0
2017-Jan-11 10:21N 63°18' E 008°16'1012.4
2017-Jan-11 09:33N 63°14' E 007°57'1212.4
2017-Jan-11 08:33N 63°07' E 007°34'1212.2
2017-Jan-11 07:33N 63°02' E 007°10'1412.2
2017-Jan-11 06:22N 62°53' E 006°44'  

Dump ship's entire track history